createdAt,value
2023-04-17T00:02:56.726Z,1.50
2023-04-17T00:05:59.379Z,1.80
2023-04-17T00:09:01.536Z,1.50
2023-04-17T00:12:04.220Z,1.65
2023-04-17T00:15:07.213Z,1.62
2023-04-17T00:18:09.669Z,1.70
2023-04-17T00:21:11.932Z,1.83
2023-04-17T00:24:14.527Z,1.77
2023-04-17T00:27:16.700Z,1.67
2023-04-17T00:30:19.282Z,1.40
2023-04-17T00:33:21.487Z,1.27
2023-04-17T00:36:23.962Z,1.45
2023-04-17T00:39:26.384Z,1.67
2023-04-17T00:42:28.798Z,1.80
2023-04-17T00:45:31.672Z,1.35
2023-04-17T00:48:35.618Z,1.85
2023-04-17T00:51:38.398Z,1.80
2023-04-17T00:54:40.908Z,1.75
2023-04-17T00:57:44.439Z,1.73
2023-04-17T01:00:47.097Z,2.50
2023-04-17T01:03:50.967Z,1.62
2023-04-17T01:06:53.661Z,1.70
2023-04-17T01:09:56.108Z,1.80
2023-04-17T01:13:06.559Z,1.75
2023-04-17T01:16:08.995Z,2.20
2023-04-17T01:19:14.848Z,2.00
2023-04-17T01:22:17.054Z,2.25
2023-04-17T01:25:19.734Z,1.95
2023-04-17T01:28:22.113Z,1.70
2023-04-17T01:31:26.305Z,2.15
2023-04-17T01:34:29.097Z,2.00
2023-04-17T01:37:31.572Z,1.73
2023-04-17T01:40:33.769Z,2.17
2023-04-17T01:43:41.232Z,1.45
2023-04-17T01:46:44.250Z,2.17
2023-04-17T01:49:46.827Z,1.87
2023-04-17T01:52:49.069Z,1.90
2023-04-17T01:55:52.148Z,1.98
2023-04-17T01:58:54.519Z,1.87
2023-04-17T02:01:57.424Z,1.85
2023-04-17T02:04:59.974Z,1.83
2023-04-17T02:08:02.278Z,1.85
2023-04-17T02:11:04.756Z,1.98
2023-04-17T02:14:06.894Z,1.70
2023-04-17T02:17:09.370Z,2.78
2023-04-17T02:20:12.321Z,1.50
2023-04-17T02:23:14.639Z,1.85
2023-04-17T02:26:17.144Z,1.60
2023-04-17T02:29:19.606Z,1.87
2023-04-17T02:32:22.473Z,1.73
2023-04-17T02:35:27.312Z,1.62
2023-04-17T02:38:30.881Z,2.08
2023-04-17T02:41:33.215Z,1.70
2023-04-17T02:44:36.032Z,1.85
2023-04-17T02:47:38.208Z,1.70
2023-04-17T02:50:40.707Z,1.80
2023-04-17T02:53:43.800Z,1.95
2023-04-17T02:56:46.216Z,1.80
2023-04-17T02:59:48.649Z,1.62
2023-04-17T03:02:51.303Z,1.83
2023-04-17T03:05:53.858Z,2.00
2023-04-17T03:08:56.953Z,1.98
2023-04-17T03:11:59.712Z,1.98
2023-04-17T03:15:02.425Z,2.00
2023-04-17T03:18:04.812Z,1.92
2023-04-17T03:21:07.731Z,1.98
2023-04-17T03:24:11.556Z,2.00
2023-04-17T03:27:14.297Z,2.10
2023-04-17T03:30:16.781Z,2.28
2023-04-17T03:33:19.959Z,1.87
2023-04-17T03:36:23.326Z,2.05
2023-04-17T03:39:27.053Z,2.03
2023-04-17T03:42:29.219Z,2.12
2023-04-17T03:45:31.600Z,1.92
2023-04-17T03:48:33.780Z,1.87
2023-04-17T03:51:36.301Z,1.67
2023-04-17T03:54:38.948Z,2.20
2023-04-17T03:57:41.436Z,2.00
2023-04-17T04:00:45.655Z,1.90
2023-04-17T04:03:49.244Z,2.15
2023-04-17T04:06:54.360Z,2.12
2023-04-17T04:09:56.988Z,2.10
2023-04-17T04:12:59.196Z,2.20
2023-04-17T04:16:01.941Z,2.30
2023-04-17T04:19:04.489Z,2.22
2023-04-17T04:22:07.861Z,2.45
2023-04-17T04:25:12.266Z,1.85
2023-04-17T04:28:17.734Z,2.33
2023-04-17T04:31:20.123Z,2.42
2023-04-17T04:34:25.792Z,2.45
2023-04-17T04:37:29.848Z,2.35
2023-04-17T04:40:38.235Z,2.10
2023-04-17T04:43:41.645Z,2.60
2023-04-17T04:46:45.206Z,2.50
2023-04-17T04:49:47.532Z,2.42
2023-04-17T04:52:51.439Z,2.47
2023-04-17T04:55:53.860Z,2.50
2023-04-17T04:58:56.780Z,2.12
2023-04-17T05:01:59.505Z,2.45
2023-04-17T05:05:02.490Z,2.37
2023-04-17T05:08:06.738Z,2.55
2023-04-17T05:11:09.830Z,2.37
2023-04-17T05:14:12.333Z,2.70
2023-04-17T05:17:15.290Z,2.28
2023-04-17T05:20:17.639Z,2.58
2023-04-17T05:23:22.805Z,2.90
2023-04-17T05:26:25.490Z,2.62
2023-04-17T05:29:28.129Z,2.70
2023-04-17T05:32:31.366Z,2.50
2023-04-17T05:35:34.074Z,3.03
2023-04-17T05:38:36.428Z,2.70
2023-04-17T05:41:41.584Z,2.60
2023-04-17T05:44:43.788Z,2.60
2023-04-17T05:47:46.747Z,2.87
2023-04-17T05:50:50.274Z,2.53
2023-04-17T05:53:52.845Z,2.60
2023-04-17T05:56:57.417Z,2.78
2023-04-17T06:00:00.366Z,2.62
2023-04-17T06:03:03.012Z,2.95
2023-04-17T06:06:06.235Z,2.90
2023-04-17T06:09:09.540Z,2.72
2023-04-17T06:12:15.959Z,2.90
2023-04-17T06:15:18.481Z,3.08
2023-04-17T06:18:21.062Z,2.97
2023-04-17T06:21:23.365Z,2.90
2023-04-17T06:24:26.854Z,2.90
2023-04-17T06:27:30.480Z,2.83
2023-04-17T06:30:32.937Z,3.47
2023-04-17T06:33:35.145Z,3.42
2023-04-17T06:36:38.757Z,2.83
2023-04-17T06:39:41.314Z,2.95
2023-04-17T06:42:44.066Z,2.53
2023-04-17T06:45:47.644Z,3.47
2023-04-17T06:48:52.139Z,3.00
2023-04-17T06:51:54.400Z,3.22
2023-04-17T06:54:57.159Z,2.90
2023-04-17T06:57:59.330Z,3.35
2023-04-17T07:01:02.381Z,3.00
2023-04-17T07:04:10.769Z,2.85
2023-04-17T07:07:13.324Z,3.30
2023-04-17T07:10:19.523Z,3.10
2023-04-17T07:13:22.156Z,3.20
2023-04-17T07:16:24.515Z,3.40
2023-04-17T07:19:30.475Z,3.22
2023-04-17T07:22:34.306Z,3.10
2023-04-17T07:25:36.741Z,2.97
2023-04-17T07:28:39.684Z,2.85
2023-04-17T07:31:42.257Z,3.03
2023-04-17T07:34:44.502Z,3.05
2023-04-17T07:37:46.920Z,3.00
2023-04-17T07:40:49.105Z,3.30
2023-04-17T07:43:51.625Z,3.30
2023-04-17T07:46:53.853Z,3.08
2023-04-17T07:49:56.663Z,3.10
2023-04-17T07:52:59.076Z,2.90
2023-04-17T07:56:02.120Z,3.10
2023-04-17T07:59:04.936Z,3.50
2023-04-17T08:02:07.961Z,2.90
2023-04-17T08:05:11.038Z,3.20
2023-04-17T08:08:13.393Z,2.72
2023-04-17T08:11:16.339Z,3.42
2023-04-17T08:14:20.371Z,2.90
2023-04-17T08:17:23.595Z,3.40
2023-04-17T08:20:27.297Z,3.35
2023-04-17T08:23:32.492Z,3.08
2023-04-17T08:26:35.350Z,3.50
2023-04-17T08:29:39.783Z,2.80
2023-04-17T08:32:45.592Z,3.10
2023-04-17T08:35:49.101Z,3.17
2023-04-17T08:38:52.462Z,3.25
2023-04-17T08:42:03.301Z,2.75
2023-04-17T08:48:13.472Z,2.95
2023-04-17T08:51:16.511Z,3.40
2023-04-17T08:54:22.161Z,2.80
2023-04-17T08:57:24.434Z,3.50
2023-04-17T09:00:32.172Z,3.05
2023-04-17T09:03:47.182Z,2.75
2023-04-17T09:06:54.382Z,3.05
2023-04-17T09:09:57.321Z,2.80
2023-04-17T09:13:01.194Z,2.60
2023-04-17T09:16:08.767Z,3.47
2023-04-17T09:19:11.788Z,2.92
2023-04-17T09:22:22.378Z,2.33
2023-04-17T09:25:26.411Z,2.65
2023-04-17T09:28:30.133Z,2.40
2023-04-17T09:31:34.760Z,2.62
2023-04-17T09:34:41.455Z,2.78
2023-04-17T09:37:56.529Z,2.78
2023-04-17T09:40:58.937Z,3.10
2023-04-17T09:44:07.028Z,2.53
2023-04-17T09:47:11.351Z,2.50
2023-04-17T09:50:18.407Z,2.87
2023-04-17T09:53:20.696Z,2.37
2023-04-17T09:56:24.477Z,2.30
2023-04-17T09:59:27.601Z,2.30
2023-04-17T10:02:30.794Z,2.78
2023-04-17T10:05:33.339Z,2.47
2023-04-17T10:08:35.768Z,2.40
2023-04-17T10:11:41.722Z,2.60
2023-04-17T10:14:51.828Z,2.30
2023-04-17T10:17:58.004Z,2.35
2023-04-17T10:21:25.246Z,2.58
2023-04-17T10:24:28.276Z,2.85
2023-04-17T10:27:33.564Z,2.53
2023-04-17T10:30:55.526Z,2.80
2023-04-17T10:40:11.144Z,2.80
2023-04-17T10:43:17.654Z,2.80
2023-04-17T10:46:28.185Z,2.60
2023-04-17T10:49:47.193Z,2.60
2023-04-17T10:52:49.349Z,3.15
2023-04-17T10:55:52.398Z,2.70
2023-04-17T10:59:00.492Z,2.87
2023-04-17T11:02:04.780Z,2.95
2023-04-17T11:05:08.074Z,2.60
2023-04-17T11:08:11.665Z,2.70
2023-04-17T11:11:18.506Z,2.42
2023-04-17T11:14:23.634Z,2.60
2023-04-17T11:17:26.377Z,2.47
2023-04-17T11:20:36.146Z,2.58
2023-04-17T11:23:39.310Z,2.47
2023-04-17T11:26:51.164Z,2.87
2023-04-17T11:29:53.312Z,3.10
2023-04-17T11:33:00.885Z,2.40
2023-04-17T11:36:05.581Z,3.00
2023-04-17T11:39:09.071Z,2.60
2023-04-17T11:42:11.518Z,2.37
2023-04-17T11:45:19.609Z,2.28
2023-04-17T11:48:24.819Z,2.00
2023-04-17T11:51:27.802Z,2.22
2023-04-17T11:54:31.906Z,2.08
2023-04-17T11:57:43.551Z,2.47
2023-04-17T12:00:45.945Z,2.20
2023-04-17T12:03:48.647Z,2.03
2023-04-17T12:06:51.408Z,2.60
2023-04-17T12:10:00.690Z,2.90
2023-04-17T12:13:02.864Z,2.72
2023-04-17T12:16:05.765Z,2.92
2023-04-17T12:19:08.677Z,2.67
2023-04-17T12:22:11.148Z,2.70
2023-04-17T12:25:13.563Z,2.47
2023-04-17T12:28:16.551Z,2.83
2023-04-17T12:31:19.809Z,3.28
2023-04-17T12:34:22.400Z,3.72
2023-04-17T12:37:25.349Z,3.20
2023-04-17T12:40:28.026Z,3.20
2023-04-17T12:43:32.532Z,3.10
2023-04-17T12:46:35.245Z,3.20
2023-04-17T12:49:37.587Z,3.40
2023-04-17T12:52:41.202Z,3.03
2023-04-17T12:55:46.129Z,3.20
2023-04-17T12:58:50.161Z,2.90
2023-04-17T13:01:52.408Z,3.22
2023-04-17T13:04:56.491Z,3.12
2023-04-17T13:07:58.729Z,3.10
2023-04-17T13:11:03.798Z,3.30
2023-04-17T13:14:06.104Z,3.22
2023-04-17T13:17:08.962Z,2.85
2023-04-17T13:20:13.404Z,3.67
2023-04-17T13:23:16.850Z,3.40
2023-04-17T13:26:20.340Z,3.95
2023-04-17T13:29:22.808Z,3.62
2023-04-17T13:32:43.359Z,3.55
2023-04-17T13:39:11.644Z,4.03
2023-04-17T13:42:22.592Z,3.47
2023-04-17T13:45:26.800Z,3.95
2023-04-17T13:48:31.617Z,4.15
2023-04-17T13:51:34.505Z,4.25
2023-04-17T13:54:36.979Z,5.03
2023-04-17T13:57:40.659Z,3.85
2023-04-17T14:00:43.380Z,3.80
2023-04-17T14:03:48.276Z,3.75
2023-04-17T14:07:00.336Z,4.30
2023-04-17T14:18:02.993Z,4.10
2023-04-17T14:21:25.707Z,4.00
2023-04-17T14:25:01.264Z,3.85
2023-04-17T14:31:50.974Z,3.80
2023-04-17T14:34:53.316Z,4.53
2023-04-17T14:37:55.752Z,4.25
2023-04-17T14:40:57.985Z,4.35
2023-04-17T14:44:00.775Z,4.70
2023-04-17T14:47:03.192Z,4.78
2023-04-17T14:50:06.488Z,4.45
2023-04-17T14:53:08.732Z,4.25
2023-04-17T14:56:11.260Z,4.18
2023-04-17T14:59:13.490Z,4.47
2023-04-17T15:02:16.319Z,3.92
2023-04-17T15:05:21.650Z,4.10
2023-04-17T15:08:24.197Z,4.03
2023-04-17T15:11:26.428Z,4.20
2023-04-17T15:14:29.895Z,3.78
2023-04-17T15:17:32.112Z,4.20
2023-04-17T15:20:36.382Z,4.45
2023-04-17T15:23:38.694Z,4.03
2023-04-17T15:26:41.803Z,4.18
2023-04-17T15:29:46.824Z,4.95
2023-04-17T15:32:49.279Z,3.83
2023-04-17T15:35:55.990Z,4.10
2023-04-17T15:38:58.444Z,4.00
2023-04-17T15:42:01.004Z,4.03
2023-04-17T15:45:04.045Z,4.47
2023-04-17T15:48:06.368Z,4.35
2023-04-17T15:51:09.541Z,4.65
2023-04-17T15:54:12.120Z,4.12
2023-04-17T15:57:14.632Z,4.20
2023-04-17T16:00:17.206Z,4.68
2023-04-17T16:03:20.072Z,5.10
2023-04-17T16:06:22.456Z,4.22
2023-04-17T16:09:24.997Z,4.25
2023-04-17T16:12:28.224Z,4.40
2023-04-17T16:15:30.760Z,4.37
2023-04-17T16:18:32.968Z,4.60
2023-04-17T16:21:36.591Z,4.32
2023-04-17T16:24:38.715Z,4.07
2023-04-17T16:27:41.437Z,4.07
2023-04-17T16:30:43.729Z,4.37
2023-04-17T16:33:46.184Z,4.22
2023-04-17T16:36:49.474Z,4.43
2023-04-17T16:39:52.030Z,4.37
2023-04-17T16:42:54.187Z,4.00
2023-04-17T16:45:57.629Z,4.43
2023-04-17T16:49:00.649Z,4.30
2023-04-17T16:52:03.131Z,4.28
2023-04-17T16:55:06.239Z,4.15
2023-04-17T16:58:08.647Z,4.40
2023-04-17T17:01:10.914Z,4.10
2023-04-17T17:04:13.448Z,4.12
2023-04-17T17:07:15.655Z,3.92
2023-04-17T17:10:18.201Z,4.37
2023-04-17T17:13:20.420Z,3.95
2023-04-17T17:16:22.929Z,4.47
2023-04-17T17:19:25.205Z,4.20
2023-04-17T17:22:27.627Z,4.47
2023-04-17T17:25:29.808Z,3.92
2023-04-17T17:28:33.120Z,4.15
2023-04-17T17:31:35.356Z,4.32
2023-04-17T17:34:37.890Z,3.85
2023-04-17T17:37:40.113Z,4.40
2023-04-17T17:40:42.562Z,4.00
2023-04-17T17:43:44.671Z,4.10
2023-04-17T17:46:47.217Z,3.58
2023-04-17T17:49:49.550Z,3.85
2023-04-17T17:52:51.960Z,3.50
2023-04-17T17:55:55.740Z,4.12
2023-04-17T17:58:58.265Z,3.75
2023-04-17T18:02:02.086Z,3.60
2023-04-17T18:05:05.238Z,3.80
2023-04-17T18:08:07.360Z,3.67
2023-04-17T18:11:09.804Z,3.85
2023-04-17T18:14:12.135Z,3.53
2023-04-17T18:17:14.710Z,3.67
2023-04-17T18:20:16.979Z,3.47
2023-04-17T18:23:19.492Z,4.10
2023-04-17T18:26:22.350Z,3.90
2023-04-17T18:29:24.771Z,4.22
2023-04-17T18:32:27.024Z,3.90
2023-04-17T18:35:29.436Z,3.75
2023-04-17T18:38:31.984Z,3.72
2023-04-17T18:41:34.675Z,4.30
2023-04-17T18:44:37.352Z,4.10
2023-04-17T18:47:39.848Z,4.03
2023-04-17T18:50:42.174Z,4.10
2023-04-17T18:53:44.674Z,4.22
2023-04-17T18:56:46.797Z,4.25
2023-04-17T18:59:49.235Z,3.83
2023-04-17T19:02:51.439Z,3.90
2023-04-17T19:05:53.993Z,3.83
2023-04-17T19:08:57.082Z,3.87
2023-04-17T19:11:59.735Z,4.00
2023-04-17T19:15:02.524Z,4.35
2023-04-17T19:18:06.668Z,4.30
2023-04-17T19:21:09.024Z,4.10
2023-04-17T19:24:11.511Z,4.15
2023-04-17T19:27:13.788Z,4.37
2023-04-17T19:30:16.355Z,4.30
2023-04-17T19:33:18.988Z,4.07
2023-04-17T19:36:21.487Z,4.03
2023-04-17T19:39:26.602Z,4.40
2023-04-17T19:42:29.127Z,3.70
2023-04-17T19:45:32.639Z,3.95
2023-04-17T19:48:35.576Z,4.03
2023-04-17T19:51:38.525Z,3.90
2023-04-17T19:54:43.712Z,3.62
2023-04-17T19:57:45.853Z,3.40
2023-04-17T20:00:48.343Z,3.53
2023-04-17T20:03:51.396Z,3.90
2023-04-17T20:06:53.629Z,3.47
2023-04-17T20:09:56.348Z,3.75
2023-04-17T20:12:58.580Z,3.65
2023-04-17T20:16:01.025Z,3.78
2023-04-17T20:19:03.282Z,3.47
2023-04-17T20:22:05.808Z,3.55
2023-04-17T20:25:08.495Z,3.47
2023-04-17T20:28:10.961Z,4.28
2023-04-17T20:31:13.229Z,3.42
2023-04-17T20:34:15.843Z,3.40
2023-04-17T20:37:18.018Z,3.75
2023-04-17T20:40:20.555Z,3.60
2023-04-17T20:43:22.804Z,3.30
2023-04-17T20:46:26.411Z,3.92
2023-04-17T20:49:28.632Z,4.15
2023-04-17T20:52:31.025Z,3.80
2023-04-17T20:55:33.211Z,3.72
2023-04-17T20:58:35.725Z,3.97
2023-04-17T21:01:37.938Z,4.10
2023-04-17T21:04:40.417Z,4.00
2023-04-17T21:07:42.549Z,3.70
2023-04-17T21:10:45.001Z,2.97
2023-04-17T21:13:48.020Z,3.10
2023-04-17T21:16:50.488Z,3.00
2023-04-17T21:19:52.642Z,2.97
2023-04-17T21:22:55.108Z,2.90
2023-04-17T21:25:57.258Z,2.80
2023-04-17T21:28:59.645Z,2.80
2023-04-17T21:32:01.926Z,3.17
2023-04-17T21:35:04.768Z,3.20
2023-04-17T21:38:06.942Z,3.17
2023-04-17T21:41:09.430Z,3.40
2023-04-17T21:44:11.877Z,3.20
2023-04-17T21:47:16.426Z,3.47
2023-04-17T21:50:18.876Z,3.15
2023-04-17T21:53:21.308Z,3.25
2023-04-17T21:56:24.067Z,3.40
2023-04-17T21:59:26.583Z,2.55
2023-04-17T22:02:28.896Z,2.78
2023-04-17T22:05:31.363Z,3.00
2023-04-17T22:08:33.544Z,3.75
2023-04-17T22:11:37.997Z,2.97
2023-04-17T22:14:40.785Z,3.00
2023-04-17T22:17:43.251Z,3.25
2023-04-17T22:20:45.712Z,2.80
2023-04-17T22:23:48.233Z,2.85
2023-04-17T22:26:50.424Z,2.80
2023-04-17T22:29:52.884Z,2.67
2023-04-17T22:32:56.570Z,3.00
2023-04-17T22:35:59.016Z,3.03
2023-04-17T22:39:01.215Z,2.80
2023-04-17T22:42:03.745Z,2.92
2023-04-17T22:45:06.389Z,2.50
2023-04-17T22:48:08.888Z,2.72
2023-04-17T22:51:12.694Z,3.47
2023-04-17T22:54:22.686Z,2.78
2023-04-17T22:57:25.634Z,3.17
2023-04-17T23:00:28.258Z,2.83
2023-04-17T23:03:30.527Z,3.10
2023-04-17T23:06:32.923Z,2.60
2023-04-17T23:09:35.190Z,3.28
2023-04-17T23:12:37.658Z,2.85
2023-04-17T23:15:39.822Z,2.95
2023-04-17T23:18:42.313Z,2.78
2023-04-17T23:21:44.428Z,3.10
2023-04-17T23:24:46.903Z,3.10
2023-04-17T23:27:49.042Z,2.97
2023-04-17T23:30:51.551Z,3.08
2023-04-17T23:33:53.686Z,3.00
2023-04-17T23:36:56.149Z,2.87
2023-04-17T23:39:58.312Z,3.47
2023-04-17T23:43:00.866Z,2.72
2023-04-17T23:46:03.104Z,3.20
2023-04-17T23:49:05.579Z,3.35
2023-04-17T23:52:07.721Z,3.03
2023-04-17T23:55:10.208Z,2.83
2023-04-17T23:58:12.372Z,3.00
